Strona główna
METAR-TAF:

METAR-TAF

Lotnisko :

Farmingdale, Nowy Jork, Stany Zjednoczone

Szerokość geograficzna: 40-44-03N, Długość geograficzna: 073-25-01W, wysokość: 24 m

Aktualna obserwacja pogody

Raport powstał 1 godzina i 3 minut temu, godzina 07:53 UTC
Wiatr 14 kt od zachód w porywach dochodzący do 22 kt
Temperatura 7°C
Wilgotność 61%
Ciśnienie 999 hPa
Widzialność: 16.1 km
Zachmurzenie całkowite na wysokości 4000 ft

METAR: KFRG 150753Z 28014G22KT 10SM OVC040 07/00 A2951 RMK AO2 PK WND 28030/0658 SLP993 T00670000 $

czas: 03:56 (08:56 UTC)


TAF: brakujący

Obserwacja i prognoza pogody dla ponad 4000 lotnisk (raport METAR i TAF).

Dostępne stacje oznaczono żółtymi i czerwonymi punktami na mapie.

Najedź kursorem aby zobaczyć nazwę stacji.

Kliknij aby zobaczyć obserwacje i prognozy pogody.

Aby zmienić mapę: kliknij na zielony przycisk z czarnym krzyżykiem, aby powiększyć; na zielony przycisk z myślnikiem, aby pomniejszyć; na zielone strzałki, aby przejść do map sąsiednich.


METAR-TAF: